createdAt,value
2022-12-09T00:00:39.618Z,27.08
2022-12-09T00:03:33.858Z,27.95
2022-12-09T00:06:29.590Z,25.92
2022-12-09T00:09:03.797Z,24.25
2022-12-09T00:11:50.769Z,24.30
2022-12-09T00:14:23.626Z,26.85
2022-12-09T00:17:10.882Z,31.55
2022-12-09T00:19:43.634Z,25.83
2022-12-09T00:22:32.689Z,26.63
2022-12-09T00:25:05.673Z,27.77
2022-12-09T00:27:52.688Z,32.45
2022-12-09T00:30:25.696Z,30.60
2022-12-09T00:33:12.889Z,29.83
2022-12-09T00:35:52.612Z,27.20
2022-12-09T00:38:46.600Z,38.40
2022-12-09T00:41:41.545Z,37.33
2022-12-09T00:44:21.616Z,35.17
2022-12-09T00:47:01.661Z,33.25
2022-12-09T00:49:41.581Z,38.38
2022-12-09T00:52:21.568Z,41.42
2022-12-09T00:54:54.700Z,46.72
2022-12-09T00:57:41.630Z,39.88
2022-12-09T01:00:15.900Z,44.10
2022-12-09T01:03:02.704Z,37.83
2022-12-09T01:05:36.801Z,45.55
2022-12-09T01:08:23.826Z,28.73
2022-12-09T01:10:56.955Z,32.35
2022-12-09T01:13:43.816Z,28.35
2022-12-09T01:16:29.734Z,29.77
2022-12-09T01:19:26.584Z,30.88
2022-12-09T01:22:13.819Z,28.73
2022-12-09T01:24:54.616Z,29.45
2022-12-09T01:27:49.583Z,32.53
2022-12-09T01:30:36.621Z,33.05
2022-12-09T01:33:09.969Z,31.27
2022-12-09T01:35:56.814Z,31.30
2022-12-09T01:38:36.594Z,34.40
2022-12-09T01:41:24.573Z,28.45
2022-12-09T01:44:16.982Z,35.38
2022-12-09T01:47:05.689Z,31.48
2022-12-09T01:49:46.557Z,31.90
2022-12-09T01:52:33.832Z,30.38
2022-12-09T01:55:06.909Z,30.83
2022-12-09T01:57:53.635Z,25.02
2022-12-09T02:00:27.633Z,26.15
2022-12-09T02:03:14.858Z,25.55
2022-12-09T02:05:49.889Z,19.27
2022-12-09T02:08:36.640Z,18.73
2022-12-09T02:11:29.035Z,18.15
2022-12-09T02:14:42.651Z,17.98
2022-12-09T02:17:41.961Z,18.02
2022-12-09T02:20:46.859Z,18.08
2022-12-09T02:23:37.928Z,20.85
2022-12-09T02:26:53.592Z,21.13
2022-12-09T02:30:05.088Z,23.38
2022-12-09T02:33:22.822Z,21.83
2022-12-09T02:36:17.602Z,25.17
2022-12-09T02:38:57.814Z,24.13
2022-12-09T02:41:58.936Z,24.63
2022-12-09T02:44:47.589Z,25.27
2022-12-09T02:47:31.690Z,25.38
2022-12-09T02:50:28.620Z,28.20
2022-12-09T02:53:19.698Z,29.23
2022-12-09T02:55:55.704Z,27.35
2022-12-09T02:58:42.790Z,23.48
2022-12-09T03:01:37.677Z,28.35
2022-12-09T03:04:30.800Z,22.45
2022-12-09T03:07:17.787Z,26.20
2022-12-09T03:10:15.861Z,28.38
2022-12-09T03:12:56.683Z,29.88
2022-12-09T03:15:48.763Z,31.08
2022-12-09T03:18:25.704Z,27.65
2022-12-09T03:21:13.972Z,23.23
2022-12-09T03:23:51.287Z,24.80
2022-12-09T03:26:40.611Z,23.98
2022-12-09T03:29:20.993Z,23.85
2022-12-09T03:32:07.715Z,23.05
2022-12-09T03:34:52.738Z,26.20
2022-12-09T03:37:40.914Z,26.20
2022-12-09T03:40:25.309Z,23.88
2022-12-09T03:43:20.927Z,23.27
2022-12-09T03:45:54.795Z,22.45
2022-12-09T03:48:42.789Z,27.40
2022-12-09T03:51:22.791Z,23.13
2022-12-09T03:54:34.744Z,25.00
2022-12-09T03:57:08.134Z,24.48
2022-12-09T04:00:00.758Z,27.27
2022-12-09T04:02:41.798Z,22.48
2022-12-09T04:05:35.778Z,29.65
2022-12-09T04:08:22.712Z,21.65
2022-12-09T04:10:55.799Z,20.95
2022-12-09T04:13:42.628Z,22.35
2022-12-09T04:16:22.850Z,21.23
2022-12-09T04:19:09.687Z,19.45
2022-12-09T04:21:49.669Z,17.63
2022-12-09T04:24:36.909Z,19.95
2022-12-09T04:27:10.726Z,17.38
2022-12-09T04:29:58.946Z,18.65
2022-12-09T04:32:32.045Z,17.35
2022-12-09T04:35:18.639Z,18.73
2022-12-09T04:37:51.765Z,17.92
2022-12-09T04:40:38.654Z,18.77
2022-12-09T04:43:12.051Z,18.80
2022-12-09T04:45:58.685Z,23.98
2022-12-09T04:48:38.701Z,30.05
2022-12-09T04:51:26.013Z,24.77
2022-12-09T04:53:59.944Z,23.02
2022-12-09T04:56:46.830Z,21.13
2022-12-09T04:59:26.712Z,30.77
2022-12-09T05:02:13.736Z,25.20
2022-12-09T05:04:47.929Z,24.48
2022-12-09T05:07:35.749Z,28.75
2022-12-09T05:10:16.202Z,27.42
2022-12-09T05:13:10.877Z,31.33
2022-12-09T05:16:06.858Z,38.45
2022-12-09T05:18:56.110Z,28.50
2022-12-09T05:21:36.938Z,33.83
2022-12-09T05:24:30.710Z,28.83
2022-12-09T05:27:19.026Z,26.27
2022-12-09T05:29:53.153Z,37.88
2022-12-09T05:32:46.789Z,28.98
2022-12-09T05:35:52.014Z,29.50
2022-12-09T05:38:39.838Z,27.45
2022-12-09T05:41:14.157Z,33.50
2022-12-09T05:44:00.681Z,32.13
2022-12-09T05:46:33.877Z,29.10
2022-12-09T05:49:21.161Z,39.92
2022-12-09T05:51:54.905Z,49.67
2022-12-09T05:54:41.777Z,42.05
2022-12-09T05:57:22.064Z,48.15
2022-12-09T06:00:15.991Z,28.77
2022-12-09T06:03:11.227Z,44.28
2022-12-09T06:06:05.188Z,34.15
2022-12-09T06:08:59.861Z,35.47
2022-12-09T06:11:53.660Z,47.55
2022-12-09T06:14:41.029Z,36.60
2022-12-09T06:17:21.711Z,31.45
2022-12-09T06:20:09.096Z,32.88
2022-12-09T06:22:43.126Z,37.10
2022-12-09T06:25:29.718Z,34.60
2022-12-09T06:28:02.923Z,44.83
2022-12-09T06:30:50.062Z,34.10
2022-12-09T06:33:53.739Z,24.98
2022-12-09T06:36:45.769Z,37.13
2022-12-09T06:39:32.674Z,38.20
2022-12-09T06:42:06.225Z,29.25
2022-12-09T06:44:52.878Z,27.52
2022-12-09T06:47:32.805Z,29.05
2022-12-09T06:50:27.215Z,28.23
2022-12-09T06:53:21.080Z,26.55
2022-12-09T06:56:13.226Z,28.20
2022-12-09T06:58:49.111Z,33.60
2022-12-09T07:01:35.869Z,30.45
2022-12-09T07:04:11.432Z,33.85
2022-12-09T07:06:59.081Z,31.55
2022-12-09T07:09:33.232Z,30.10
2022-12-09T07:12:19.740Z,24.10
2022-12-09T07:14:52.926Z,30.90
2022-12-09T07:17:40.006Z,30.77
2022-12-09T07:20:14.153Z,32.28
2022-12-09T07:23:01.099Z,27.50
2022-12-09T07:25:34.935Z,30.95
2022-12-09T07:28:22.161Z,34.25
2022-12-09T07:31:03.128Z,36.22
2022-12-09T07:33:57.482Z,34.72
2022-12-09T07:36:44.770Z,46.13
2022-12-09T07:39:21.929Z,37.85
2022-12-09T07:42:08.858Z,40.88
2022-12-09T07:44:41.905Z,39.58
2022-12-09T07:47:29.508Z,29.02
2022-12-09T07:50:06.553Z,41.22
2022-12-09T07:52:53.736Z,41.67
2022-12-09T07:55:26.889Z,42.42
2022-12-09T07:58:14.135Z,50.28
2022-12-09T08:00:47.930Z,49.60
2022-12-09T08:03:35.005Z,50.42
2022-12-09T08:06:16.173Z,48.15
2022-12-09T08:09:08.191Z,46.00
2022-12-09T08:11:42.007Z,39.55
2022-12-09T08:14:29.783Z,36.13
2022-12-09T08:17:03.394Z,41.80
2022-12-09T08:19:50.024Z,36.90
2022-12-09T08:22:31.157Z,33.67
2022-12-09T08:25:25.115Z,36.47
2022-12-09T08:28:18.834Z,33.13
2022-12-09T08:31:12.839Z,34.03
2022-12-09T08:34:08.066Z,33.08
2022-12-09T08:37:02.394Z,30.80
2022-12-09T08:39:57.155Z,28.83
2022-12-09T08:42:51.904Z,34.33
2022-12-09T08:45:50.952Z,30.77
2022-12-09T08:48:38.109Z,31.83
2022-12-09T08:51:19.740Z,35.40
2022-12-09T08:54:14.754Z,30.50
2022-12-09T08:57:03.095Z,31.42
2022-12-09T08:59:45.457Z,36.28
2022-12-09T09:02:40.228Z,37.22
2022-12-09T09:05:34.189Z,31.30
2022-12-09T09:08:28.285Z,30.73
2022-12-09T09:11:23.184Z,30.42
2022-12-09T09:13:57.118Z,32.10
2022-12-09T09:16:47.227Z,28.60
2022-12-09T09:19:25.749Z,32.90
2022-12-09T09:22:13.164Z,39.83
2022-12-09T09:24:54.183Z,40.45
2022-12-09T09:27:47.860Z,36.67
2022-12-09T09:30:34.849Z,38.30
2022-12-09T09:33:14.811Z,32.33
2022-12-09T09:36:10.168Z,33.28
2022-12-09T09:38:45.296Z,34.45
2022-12-09T09:41:34.973Z,35.28
2022-12-09T09:44:08.998Z,35.38
2022-12-09T09:46:57.364Z,42.35
2022-12-09T09:50:17.468Z,41.63
2022-12-09T09:53:04.937Z,49.50
2022-12-09T09:55:52.863Z,54.92
2022-12-09T09:58:58.200Z,63.83
2022-12-09T10:01:52.414Z,49.70
2022-12-09T10:04:52.114Z,43.78
2022-12-09T10:07:58.233Z,41.83
2022-12-09T10:11:02.971Z,39.40
2022-12-09T10:14:06.164Z,35.25
2022-12-09T10:17:35.249Z,38.05
2022-12-09T10:20:28.903Z,33.47
2022-12-09T10:23:11.095Z,36.05
2022-12-09T10:26:02.119Z,32.70
2022-12-09T10:28:49.140Z,33.22
2022-12-09T10:31:36.000Z,31.15
2022-12-09T10:34:09.189Z,31.92
2022-12-09T10:36:55.962Z,36.05
2022-12-09T10:39:29.180Z,36.33
2022-12-09T10:42:35.373Z,35.85
2022-12-09T10:45:14.330Z,38.72
2022-12-09T10:48:01.142Z,40.47
2022-12-09T10:50:50.158Z,59.03
2022-12-09T10:53:38.238Z,57.40
2022-12-09T10:56:15.525Z,53.53
2022-12-09T10:59:20.254Z,42.30
2022-12-09T11:02:06.187Z,40.00
2022-12-09T11:04:54.123Z,39.47
2022-12-09T11:07:37.907Z,32.80
2022-12-09T11:10:51.205Z,33.45
2022-12-09T11:13:46.172Z,31.38
2022-12-09T11:16:27.024Z,33.47
2022-12-09T11:19:27.932Z,30.50
2022-12-09T11:22:28.108Z,35.22
2022-12-09T11:25:19.255Z,35.70
2022-12-09T11:28:18.932Z,34.03
2022-12-09T11:31:33.505Z,34.97
2022-12-09T11:34:21.125Z,35.88
2022-12-09T11:37:08.807Z,33.42
2022-12-09T11:39:49.777Z,31.92
2022-12-09T11:42:43.777Z,35.67
2022-12-09T11:45:43.780Z,30.15
2022-12-09T11:48:43.687Z,32.75
2022-12-09T11:51:36.877Z,27.90
2022-12-09T11:54:54.810Z,27.02
2022-12-09T11:58:00.798Z,28.20
2022-12-09T12:00:54.803Z,33.28
2022-12-09T12:03:49.001Z,31.42
2022-12-09T12:06:48.801Z,33.22
2022-12-09T12:10:01.912Z,33.40
2022-12-09T12:13:23.968Z,33.03
2022-12-09T12:16:24.814Z,33.38
2022-12-09T12:19:30.818Z,30.55
2022-12-09T12:22:36.835Z,41.20
2022-12-09T12:25:29.933Z,50.97
2022-12-09T12:28:35.805Z,41.88
2022-12-09T12:31:28.507Z,38.50
2022-12-09T12:34:42.810Z,38.30
2022-12-09T12:37:41.801Z,36.20
2022-12-09T12:40:27.919Z,33.58
2022-12-09T12:43:50.804Z,39.38
2022-12-09T12:46:45.926Z,35.65
2022-12-09T12:50:04.075Z,50.20
2022-12-09T12:52:56.392Z,66.38
2022-12-09T12:56:09.804Z,37.30
2022-12-09T12:58:57.820Z,34.75
2022-12-09T13:02:13.821Z,36.22
2022-12-09T13:05:05.823Z,41.83
2022-12-09T13:08:01.945Z,41.58
2022-12-09T13:11:09.819Z,42.58
2022-12-09T13:14:04.945Z,36.45
2022-12-09T13:16:42.983Z,38.97
2022-12-09T13:19:44.871Z,32.30
2022-12-09T13:22:26.907Z,40.88
2022-12-09T13:25:21.889Z,33.70
2022-12-09T13:28:09.969Z,37.03
2022-12-09T13:31:09.834Z,38.40
2022-12-09T13:33:57.714Z,38.13
2022-12-09T13:36:55.808Z,36.25
2022-12-09T13:39:56.003Z,33.78
2022-12-09T13:43:02.853Z,34.78
2022-12-09T13:45:56.947Z,34.10
2022-12-09T13:48:50.869Z,38.63
2022-12-09T13:51:27.480Z,35.92
2022-12-09T13:54:22.864Z,34.58
2022-12-09T13:57:40.873Z,36.28
2022-12-09T14:00:34.862Z,34.88
2022-12-09T14:03:35.902Z,37.38
2022-12-09T14:06:25.065Z,39.05
2022-12-09T14:09:46.869Z,45.88
2022-12-09T14:12:44.266Z,38.85
2022-12-09T14:15:30.940Z,43.08
2022-12-09T14:18:14.859Z,39.75
2022-12-09T14:21:35.720Z,42.67
2022-12-09T14:24:23.889Z,45.25
2022-12-09T14:26:59.938Z,38.03
2022-12-09T14:30:03.024Z,33.03
2022-12-09T14:32:56.131Z,35.38
2022-12-09T14:35:50.863Z,33.17
2022-12-09T14:39:15.663Z,35.58
2022-12-09T14:42:14.868Z,33.40
2022-12-09T14:45:26.867Z,30.98
2022-12-09T14:48:20.859Z,31.10
2022-12-09T14:51:00.882Z,34.63
2022-12-09T14:53:54.857Z,36.45
2022-12-09T14:56:48.897Z,29.85
2022-12-09T14:59:44.873Z,30.98
2022-12-09T15:02:36.961Z,34.65
2022-12-09T15:05:12.069Z,34.15
2022-12-09T15:07:59.044Z,28.75
2022-12-09T15:10:44.010Z,28.42
2022-12-09T15:13:32.924Z,31.55
2022-12-09T15:16:06.006Z,30.27
2022-12-09T15:18:53.927Z,38.50
2022-12-09T15:21:35.928Z,57.80
2022-12-09T15:24:25.287Z,64.20
2022-12-09T15:27:07.026Z,71.05
2022-12-09T15:29:55.914Z,61.00
2022-12-09T15:32:34.964Z,60.72
2022-12-09T15:35:35.879Z,49.25
2022-12-09T15:38:22.923Z,46.10
2022-12-09T15:41:20.878Z,42.45
2022-12-09T15:44:21.400Z,45.85
2022-12-09T15:47:15.900Z,43.22
2022-12-09T15:49:57.987Z,46.85
2022-12-09T15:53:06.933Z,42.92
2022-12-09T15:56:01.975Z,52.13
2022-12-09T15:58:55.880Z,53.05
2022-12-09T16:01:34.016Z,57.95
2022-12-09T16:04:25.889Z,51.67
2022-12-09T16:07:05.884Z,48.03
2022-12-09T16:10:15.639Z,49.53
2022-12-09T16:12:49.974Z,40.53
2022-12-09T16:16:13.976Z,51.30
2022-12-09T16:18:56.637Z,54.42
2022-12-09T16:21:42.929Z,66.30
2022-12-09T16:24:19.975Z,66.85
2022-12-09T16:27:10.901Z,67.95
2022-12-09T16:29:43.969Z,61.63
2022-12-09T16:32:37.930Z,60.35
2022-12-09T16:35:24.210Z,70.85
2022-12-09T16:38:23.933Z,59.03
2022-12-09T16:41:18.947Z,45.40
2022-12-09T16:44:06.000Z,55.28
2022-12-09T16:46:50.959Z,72.63
2022-12-09T16:49:38.006Z,63.08
2022-12-09T16:52:11.056Z,63.33
2022-12-09T16:54:57.983Z,43.30
2022-12-09T16:57:38.076Z,49.75
2022-12-09T17:00:32.927Z,46.10
2022-12-09T17:03:46.956Z,47.35
2022-12-09T17:06:22.033Z,47.65
2022-12-09T17:09:08.920Z,49.17
2022-12-09T17:11:49.413Z,45.30
2022-12-09T17:14:42.972Z,44.88
2022-12-09T17:17:30.964Z,42.35
2022-12-09T17:20:04.012Z,47.00
2022-12-09T17:22:50.928Z,41.70
2022-12-09T17:25:31.929Z,38.00
2022-12-09T17:28:18.973Z,36.72
2022-12-09T17:30:51.970Z,40.70
2022-12-09T17:33:45.923Z,34.15
2022-12-09T17:36:39.939Z,43.20
2022-12-09T17:39:26.928Z,47.03
2022-12-09T17:42:15.979Z,46.64
2022-12-09T17:45:04.041Z,42.88
2022-12-09T17:47:37.079Z,35.42
2022-12-09T17:50:23.928Z,42.20
2022-12-09T17:52:57.002Z,47.78
2022-12-09T17:55:46.914Z,51.03
2022-12-09T17:58:28.919Z,52.72
2022-12-09T18:01:30.947Z,44.78
2022-12-09T18:04:17.922Z,42.53
2022-12-09T18:06:52.009Z,41.35
2022-12-09T18:09:38.936Z,40.75
2022-12-09T18:12:18.920Z,36.88
2022-12-09T18:15:12.930Z,63.30
2022-12-09T18:18:06.942Z,64.20
2022-12-09T18:21:00.928Z,62.78
2022-12-09T18:23:47.933Z,57.58
2022-12-09T18:26:35.283Z,67.97
2022-12-09T18:29:24.969Z,88.82
2022-12-09T18:32:00.006Z,89.88
2022-12-09T18:34:46.931Z,99.15
2022-12-09T18:37:20.133Z,120.85
2022-12-09T18:40:07.188Z,170.23
2022-12-09T18:42:47.928Z,232.80
2022-12-09T18:45:34.927Z,202.32
2022-12-09T18:48:08.111Z,179.15
2022-12-09T18:50:54.939Z,169.63
2022-12-09T18:53:27.982Z,166.43
2022-12-09T18:56:14.913Z,140.10
2022-12-09T18:59:06.363Z,116.97
2022-12-09T19:01:50.076Z,134.90
2022-12-09T19:04:32.086Z,119.93
2022-12-09T19:07:11.984Z,96.80
2022-12-09T19:09:52.004Z,81.75
2022-12-09T19:12:47.020Z,79.38
2022-12-09T19:15:27.074Z,66.35
2022-12-09T19:18:06.931Z,49.17
2022-12-09T19:20:48.215Z,47.17
2022-12-09T19:23:27.978Z,49.90
2022-12-09T19:26:08.026Z,56.67
2022-12-09T19:28:56.262Z,50.05
2022-12-09T19:31:40.152Z,56.92
2022-12-09T19:34:19.999Z,53.78
2022-12-09T19:37:07.976Z,49.92
2022-12-09T19:39:43.247Z,51.20
2022-12-09T19:42:32.344Z,48.53
2022-12-09T19:45:09.048Z,48.38
2022-12-09T19:47:58.964Z,67.82
2022-12-09T19:50:32.072Z,54.97
2022-12-09T19:53:18.963Z,54.10
2022-12-09T19:55:58.971Z,53.85
2022-12-09T19:58:56.268Z,63.88
2022-12-09T20:01:50.385Z,66.28
2022-12-09T20:07:34.950Z,78.70
2022-12-09T20:10:08.243Z,60.80
2022-12-09T20:12:54.964Z,54.65
2022-12-09T20:15:28.048Z,46.50
2022-12-09T20:18:15.990Z,35.53
2022-12-09T20:20:55.984Z,40.50
2022-12-09T20:23:51.006Z,61.25
2022-12-09T20:26:40.944Z,68.65
2022-12-09T20:29:17.066Z,117.80
2022-12-09T20:32:06.310Z,147.93
2022-12-09T20:35:08.042Z,134.40
2022-12-09T20:38:01.977Z,125.68
2022-12-09T20:40:48.955Z,101.00
2022-12-09T20:43:22.048Z,101.63
2022-12-09T20:46:12.028Z,113.78
2022-12-09T20:48:46.067Z,87.85
2022-12-09T20:51:38.981Z,93.93
2022-12-09T20:54:13.215Z,84.53
2022-12-09T20:56:59.981Z,70.47
2022-12-09T20:59:33.311Z,58.95
2022-12-09T21:02:21.003Z,50.78
2022-12-09T21:04:54.091Z,56.30
2022-12-09T21:07:41.075Z,57.28
2022-12-09T21:10:15.474Z,61.05
2022-12-09T21:13:01.976Z,47.78
2022-12-09T21:15:38.385Z,50.60
2022-12-09T21:18:24.983Z,40.25
2022-12-09T21:21:04.995Z,42.78
2022-12-09T21:24:00.982Z,41.35
2022-12-09T21:26:47.983Z,39.95
2022-12-09T21:29:32.222Z,52.22
2022-12-09T21:32:18.983Z,52.42
2022-12-09T21:34:52.125Z,67.03
2022-12-09T21:37:39.008Z,52.38
2022-12-09T21:40:13.104Z,59.10
2022-12-09T21:42:59.980Z,98.72
2022-12-09T21:45:33.083Z,84.90
2022-12-09T21:48:19.975Z,81.63
2022-12-09T21:51:00.077Z,79.20
2022-12-09T21:53:47.992Z,66.95
2022-12-09T21:56:28.990Z,61.67
2022-12-09T21:59:24.021Z,65.25
2022-12-09T22:02:18.012Z,74.45
2022-12-09T22:05:05.042Z,81.53
2022-12-09T22:07:38.144Z,84.03
2022-12-09T22:10:24.992Z,97.18
2022-12-09T22:12:58.079Z,108.18
2022-12-09T22:15:45.004Z,101.43
2022-12-09T22:18:18.067Z,108.60
2022-12-09T22:21:26.593Z,87.63
2022-12-09T22:24:11.988Z,78.22
2022-12-09T22:26:59.003Z,56.58
2022-12-09T22:29:38.987Z,67.10
2022-12-09T22:32:37.796Z,65.13
2022-12-09T22:35:33.995Z,76.07
2022-12-09T22:38:28.043Z,74.55
2022-12-09T22:41:26.992Z,67.00
2022-12-09T22:44:20.990Z,63.35
2022-12-09T22:47:15.019Z,64.18
2022-12-09T22:50:02.000Z,55.10
2022-12-09T22:52:36.096Z,57.83
2022-12-09T22:55:23.009Z,56.55
2022-12-09T22:57:57.093Z,48.88
2022-12-09T23:00:44.016Z,47.60
2022-12-09T23:03:18.114Z,38.92
2022-12-09T23:06:08.020Z,40.63
2022-12-09T23:08:49.003Z,38.35
2022-12-09T23:11:36.022Z,32.83
2022-12-09T23:14:16.038Z,37.33
2022-12-09T23:17:10.007Z,28.85
2022-12-09T23:19:57.003Z,30.65
2022-12-09T23:22:37.004Z,27.98
2022-12-09T23:25:31.024Z,26.23
2022-12-09T23:28:25.026Z,25.52
2022-12-09T23:31:21.091Z,23.15
2022-12-09T23:34:16.020Z,21.90
2022-12-09T23:37:03.034Z,21.58
2022-12-09T23:39:36.176Z,21.83
2022-12-09T23:42:23.012Z,23.75
2022-12-09T23:45:03.038Z,25.92
2022-12-09T23:47:57.021Z,23.90
2022-12-09T23:50:44.038Z,22.45
2022-12-09T23:53:17.084Z,22.30
2022-12-09T23:56:04.096Z,21.20
2022-12-09T23:58:37.104Z,22.08
